createdAt,value
2017-07-05T00:01:47.819Z,32.50
2017-07-05T00:04:18.124Z,32.50
2017-07-05T00:06:47.920Z,32.50
2017-07-05T00:09:16.424Z,32.30
2017-07-05T00:11:47.024Z,32.50
2017-07-05T00:14:16.411Z,32.50
2017-07-05T00:16:45.347Z,32.50
2017-07-05T00:19:15.040Z,32.50
2017-07-05T00:21:44.655Z,32.50
2017-07-05T00:24:14.723Z,32.50
2017-07-05T00:26:45.488Z,32.40
2017-07-05T00:29:16.912Z,32.40
2017-07-05T00:31:46.912Z,32.30
2017-07-05T00:34:16.823Z,32.40
2017-07-05T00:36:47.412Z,32.40
2017-07-05T00:39:17.892Z,32.40
2017-07-05T00:41:47.265Z,32.40
2017-07-05T00:44:17.384Z,32.30
2017-07-05T00:46:47.100Z,32.30
2017-07-05T00:49:15.895Z,32.30
2017-07-05T00:51:47.084Z,32.20
2017-07-05T00:54:17.624Z,32.20
2017-07-05T00:56:46.963Z,32.20
2017-07-05T00:59:17.228Z,32.20
2017-07-05T01:01:46.364Z,32.20
2017-07-05T01:04:16.600Z,32.30
2017-07-05T01:06:46.811Z,32.30
2017-07-05T01:09:17.844Z,32.20
2017-07-05T01:11:46.657Z,32.20
2017-07-05T01:14:16.532Z,32.10
2017-07-05T01:16:45.748Z,32.00
2017-07-05T01:19:14.576Z,32.00
2017-07-05T01:21:44.132Z,31.90
2017-07-05T01:24:14.796Z,31.90
2017-07-05T01:26:45.682Z,31.90
2017-07-05T01:29:16.987Z,31.90
2017-07-05T01:31:48.039Z,31.80
2017-07-05T01:34:17.779Z,31.80
2017-07-05T01:36:47.604Z,31.80
2017-07-05T01:39:17.592Z,31.80
2017-07-05T01:41:47.122Z,31.80
2017-07-05T01:44:15.891Z,31.70
2017-07-05T01:46:45.388Z,31.70
2017-07-05T01:49:14.927Z,31.80
2017-07-05T01:51:45.528Z,31.80
2017-07-05T01:54:15.616Z,31.80
2017-07-05T01:56:44.316Z,31.80
2017-07-05T01:59:13.791Z,31.80
2017-07-05T02:01:43.662Z,31.70
2017-07-05T02:04:13.408Z,31.60
2017-07-05T02:06:43.396Z,31.40
2017-07-05T02:09:12.651Z,31.60
2017-07-05T02:11:42.840Z,31.60
2017-07-05T02:14:12.764Z,31.60
2017-07-05T02:16:42.624Z,31.50
2017-07-05T02:19:12.283Z,31.40
2017-07-05T02:24:16.659Z,31.40
2017-07-05T02:26:46.531Z,31.40
2017-07-05T02:29:17.739Z,31.40
2017-07-05T02:31:47.688Z,31.40
2017-07-05T02:34:17.163Z,31.50
2017-07-05T02:36:47.188Z,31.40
2017-07-05T02:39:17.448Z,31.30
2017-07-05T02:41:46.467Z,31.40
2017-07-05T02:44:17.964Z,31.30
2017-07-05T02:46:46.921Z,31.10
2017-07-05T02:49:17.683Z,31.10
2017-07-05T02:51:46.707Z,31.20
2017-07-05T02:54:15.644Z,31.40
2017-07-05T02:56:44.635Z,31.60
2017-07-05T02:59:14.439Z,31.70
2017-07-05T03:01:44.380Z,31.90
2017-07-05T03:04:14.088Z,32.00
2017-07-05T03:06:44.384Z,32.10
2017-07-05T03:09:12.544Z,32.20
2017-07-05T03:11:41.779Z,32.20
2017-07-05T03:14:12.083Z,32.50
2017-07-05T03:16:41.958Z,32.50
2017-07-05T03:19:12.040Z,32.60
2017-07-05T03:21:43.448Z,32.70
2017-07-05T03:24:12.515Z,32.90
2017-07-05T03:26:41.371Z,33.10
2017-07-05T03:29:11.959Z,33.30
2017-07-05T03:31:42.343Z,33.30
2017-07-05T03:34:11.959Z,33.40
2017-07-05T03:36:42.214Z,33.50
2017-07-05T03:39:11.067Z,33.60
2017-07-05T03:41:40.309Z,33.60
2017-07-05T03:44:11.762Z,33.80
2017-07-05T03:46:43.187Z,33.90
2017-07-05T03:49:12.465Z,34.00
2017-07-05T03:51:41.927Z,34.20
2017-07-05T03:54:11.536Z,34.60
2017-07-05T03:56:42.361Z,34.70
2017-07-05T03:59:14.623Z,34.70
2017-07-05T04:01:43.472Z,34.90
2017-07-05T04:04:14.016Z,35.00
2017-07-05T04:06:44.227Z,35.40
2017-07-05T04:09:13.491Z,35.40
2017-07-05T04:11:44.968Z,35.70
2017-07-05T04:14:16.436Z,35.70
2017-07-05T04:16:47.316Z,36.00
2017-07-05T04:19:16.715Z,36.00
2017-07-05T04:21:45.960Z,36.30
2017-07-05T04:24:17.551Z,36.50
2017-07-05T04:26:48.353Z,36.80
2017-07-05T04:29:17.992Z,36.70
2017-07-05T04:31:49.256Z,36.90
2017-07-05T04:34:19.045Z,37.30
2017-07-05T04:36:48.888Z,37.60
2017-07-05T04:39:17.607Z,37.80
2017-07-05T04:41:48.536Z,38.00
2017-07-05T04:44:18.436Z,38.30
2017-07-05T04:46:48.143Z,38.70
2017-07-05T04:49:16.816Z,39.10
2017-07-05T04:51:47.692Z,39.90
2017-07-05T04:54:18.039Z,39.80
2017-07-05T04:56:48.139Z,41.10
2017-07-05T04:59:17.107Z,42.70
2017-07-05T05:01:45.968Z,43.60
2017-07-05T05:04:14.247Z,44.30
2017-07-05T05:06:43.905Z,45.70
2017-07-05T05:09:12.843Z,45.70
2017-07-05T05:11:42.149Z,45.40
2017-07-05T05:14:10.491Z,45.10
2017-07-05T05:16:38.979Z,44.90
2017-07-05T05:19:08.523Z,44.10
2017-07-05T05:21:39.167Z,43.60
2017-07-05T05:24:09.359Z,43.50
2017-07-05T05:26:39.800Z,43.60
2017-07-05T05:29:07.955Z,44.60
2017-07-05T05:31:38.096Z,45.60
2017-07-05T05:34:07.640Z,47.30
2017-07-05T05:36:37.120Z,47.20
2017-07-05T05:39:06.092Z,47.60
2017-07-05T05:41:35.635Z,48.00
2017-07-05T05:44:04.503Z,48.40
2017-07-05T05:46:34.596Z,46.10
2017-07-05T05:49:03.807Z,46.10
2017-07-05T05:51:34.428Z,46.30
2017-07-05T05:54:03.554Z,46.20
2017-07-05T05:56:33.724Z,46.00
2017-07-05T05:59:02.573Z,45.70
2017-07-05T06:01:32.820Z,45.30
2017-07-05T06:04:01.690Z,44.80
2017-07-05T06:06:30.876Z,44.70
2017-07-05T06:09:00.499Z,44.70
2017-07-05T06:11:30.800Z,45.70
2017-07-05T06:13:59.816Z,45.80
2017-07-05T06:16:30.059Z,46.50
2017-07-05T06:18:59.761Z,47.30
2017-07-05T06:21:29.327Z,48.10
2017-07-05T06:23:59.236Z,49.00
2017-07-05T06:26:28.087Z,49.40
2017-07-05T06:28:57.540Z,49.80
2017-07-05T06:31:25.852Z,49.80
2017-07-05T06:33:56.371Z,50.30
2017-07-05T06:36:25.964Z,49.40
2017-07-05T06:38:55.284Z,49.40
2017-07-05T06:41:25.511Z,47.90
2017-07-05T06:43:55.224Z,47.00
2017-07-05T06:46:25.508Z,46.10
2017-07-05T06:48:55.431Z,45.50
2017-07-05T06:51:25.001Z,45.00
2017-07-05T06:53:54.946Z,44.90
2017-07-05T06:56:23.619Z,45.20
2017-07-05T06:58:54.577Z,45.30
2017-07-05T07:01:25.328Z,45.10
2017-07-05T07:03:53.528Z,44.70
2017-07-05T07:06:24.793Z,44.40
2017-07-05T07:08:56.123Z,44.40
2017-07-05T07:11:26.304Z,44.40
2017-07-05T07:13:55.959Z,44.40
2017-07-05T07:16:26.971Z,44.80
2017-07-05T07:18:56.023Z,44.80
2017-07-05T07:21:25.636Z,45.50
2017-07-05T07:23:56.587Z,45.80
2017-07-05T07:26:26.717Z,46.00
2017-07-05T07:28:57.068Z,46.30
2017-07-05T07:31:27.368Z,45.90
2017-07-05T07:33:56.284Z,46.10
2017-07-05T07:36:25.808Z,46.00
2017-07-05T07:38:57.796Z,46.90
2017-07-05T07:41:26.416Z,46.90
2017-07-05T07:43:55.660Z,46.50
2017-07-05T07:46:25.351Z,45.40
2017-07-05T07:48:56.415Z,44.80
2017-07-05T07:51:26.260Z,44.10
2017-07-05T07:53:55.552Z,43.70
2017-07-05T07:56:25.335Z,43.20
2017-07-05T07:58:54.906Z,42.70
2017-07-05T08:01:25.411Z,42.70
2017-07-05T08:03:55.158Z,42.60
2017-07-05T08:06:23.880Z,42.70
2017-07-05T08:08:54.720Z,42.00
2017-07-05T08:11:25.188Z,42.10
2017-07-05T08:13:54.639Z,42.00
2017-07-05T08:16:24.932Z,42.10
2017-07-05T08:18:54.091Z,42.30
2017-07-05T08:21:24.227Z,42.10
2017-07-05T08:23:54.047Z,42.10
2017-07-05T08:26:24.056Z,42.00
2017-07-05T08:28:54.853Z,41.90
2017-07-05T08:31:25.068Z,41.70
2017-07-05T08:33:54.137Z,41.70
2017-07-05T08:36:23.330Z,42.00
2017-07-05T08:38:53.208Z,42.20
2017-07-05T08:41:23.160Z,42.20
2017-07-05T08:43:51.805Z,42.10
2017-07-05T08:46:23.981Z,42.00
2017-07-05T08:48:56.220Z,41.90
2017-07-05T08:51:25.080Z,41.80
2017-07-05T08:53:55.183Z,41.60
2017-07-05T08:56:25.079Z,41.70
2017-07-05T08:58:55.141Z,41.60
2017-07-05T09:01:25.720Z,41.60
2017-07-05T09:03:55.571Z,41.50
2017-07-05T09:06:25.451Z,41.50
2017-07-05T09:08:55.678Z,41.40
2017-07-05T09:11:24.779Z,41.30
2017-07-05T09:13:54.663Z,41.40
2017-07-05T09:16:24.711Z,41.20
2017-07-05T09:18:54.192Z,41.20
2017-07-05T09:21:23.732Z,41.50
2017-07-05T09:23:54.424Z,41.30
2017-07-05T09:26:26.716Z,41.10
2017-07-05T09:28:55.919Z,41.10
2017-07-05T09:31:25.020Z,41.20
2017-07-05T09:33:53.979Z,41.20
2017-07-05T09:36:24.751Z,41.20
2017-07-05T09:38:53.767Z,41.20
2017-07-05T09:41:22.479Z,41.40
2017-07-05T09:43:51.099Z,41.20
2017-07-05T09:46:22.051Z,41.10
2017-07-05T09:48:50.647Z,41.20
2017-07-05T09:51:20.271Z,41.30
2017-07-05T09:53:49.779Z,41.40
2017-07-05T09:56:19.887Z,41.40
2017-07-05T09:58:50.929Z,41.50
2017-07-05T10:01:20.233Z,41.30
2017-07-05T10:03:49.827Z,41.20
2017-07-05T10:06:19.252Z,41.20
2017-07-05T10:08:49.012Z,41.20
2017-07-05T10:11:17.499Z,41.10
2017-07-05T10:13:46.995Z,41.10
2017-07-05T10:16:16.343Z,41.10
2017-07-05T10:18:47.441Z,41.10
2017-07-05T10:21:16.464Z,41.00
2017-07-05T10:23:46.449Z,40.90
2017-07-05T10:26:15.703Z,41.00
2017-07-05T10:28:45.804Z,41.00
2017-07-05T10:31:15.432Z,41.00
2017-07-05T10:33:45.683Z,41.00
2017-07-05T10:36:14.004Z,41.00
2017-07-05T10:38:44.288Z,40.90
2017-07-05T10:41:13.132Z,40.90
2017-07-05T10:43:44.379Z,40.80
2017-07-05T10:46:14.603Z,40.70
2017-07-05T10:48:45.213Z,40.60
2017-07-05T10:51:15.276Z,40.70
2017-07-05T10:53:46.171Z,40.70
2017-07-05T10:56:17.664Z,40.60
2017-07-05T10:58:48.952Z,40.50
2017-07-05T11:01:19.206Z,40.50
2017-07-05T11:03:48.181Z,40.60
2017-07-05T11:06:19.816Z,40.60
2017-07-05T11:08:49.616Z,40.60
2017-07-05T11:11:18.436Z,40.50
2017-07-05T11:13:48.213Z,40.40
2017-07-05T11:16:17.180Z,40.40
2017-07-05T11:18:46.912Z,40.50
2017-07-05T11:21:18.388Z,40.40
2017-07-05T11:23:49.736Z,40.40
2017-07-05T11:26:20.611Z,40.40
2017-07-05T11:28:50.136Z,40.50
2017-07-05T11:31:21.260Z,40.50
2017-07-05T11:33:51.847Z,40.20
2017-07-05T11:36:20.543Z,40.20
2017-07-05T11:38:49.019Z,40.30
2017-07-05T11:41:17.915Z,40.30
2017-07-05T11:43:47.652Z,40.30
2017-07-05T11:46:17.111Z,40.10
2017-07-05T11:48:45.315Z,40.20
2017-07-05T11:51:15.932Z,40.30
2017-07-05T11:53:46.571Z,40.10
2017-07-05T11:56:15.571Z,40.10
2017-07-05T11:58:44.856Z,40.10
2017-07-05T12:01:14.770Z,40.10
2017-07-05T12:03:46.084Z,40.10
2017-07-05T12:06:15.111Z,39.90
2017-07-05T12:08:44.841Z,39.90
2017-07-05T12:11:15.284Z,39.80
2017-07-05T12:13:44.356Z,39.90
2017-07-05T12:16:15.528Z,39.90
2017-07-05T12:18:46.375Z,39.90
2017-07-05T12:21:17.579Z,39.80
2017-07-05T12:23:48.552Z,39.80
2017-07-05T12:26:17.820Z,39.80
2017-07-05T12:28:47.900Z,39.70
2017-07-05T12:31:17.371Z,39.70
2017-07-05T12:33:46.960Z,39.70
2017-07-05T12:36:17.796Z,39.70
2017-07-05T12:38:48.671Z,39.70
2017-07-05T12:41:18.487Z,39.70
2017-07-05T12:43:48.023Z,39.60
2017-07-05T12:46:17.036Z,39.50
2017-07-05T12:48:47.268Z,39.40
2017-07-05T12:51:18.672Z,39.30
2017-07-05T12:53:47.872Z,39.30
2017-07-05T12:56:17.136Z,39.40
2017-07-05T12:58:46.420Z,39.30
2017-07-05T13:01:16.424Z,39.30
2017-07-05T13:03:46.520Z,39.30
2017-07-05T13:06:14.795Z,39.20
2017-07-05T13:08:46.651Z,39.00
2017-07-05T13:11:16.303Z,38.90
2017-07-05T13:13:46.031Z,38.90
2017-07-05T13:16:16.252Z,38.80
2017-07-05T13:18:44.364Z,38.80
2017-07-05T13:21:14.836Z,38.90
2017-07-05T13:23:45.154Z,38.80
2017-07-05T13:26:14.168Z,38.70
2017-07-05T13:28:44.020Z,38.70
2017-07-05T13:31:14.227Z,38.70
2017-07-05T13:33:44.373Z,38.60
2017-07-05T13:36:12.563Z,38.50
2017-07-05T13:38:43.365Z,38.50
2017-07-05T13:41:13.333Z,38.50
2017-07-05T13:43:43.809Z,38.50
2017-07-05T13:46:13.711Z,38.40
2017-07-05T13:48:43.573Z,38.40
2017-07-05T13:51:12.529Z,38.40
2017-07-05T13:53:43.912Z,38.40
2017-07-05T13:56:14.323Z,38.30
2017-07-05T13:58:43.468Z,38.20
2017-07-05T14:01:14.004Z,38.10
2017-07-05T14:03:43.716Z,38.10
2017-07-05T14:06:14.209Z,38.00
2017-07-05T14:08:44.109Z,38.00
2017-07-05T14:11:14.370Z,38.00
2017-07-05T14:13:44.687Z,38.00
2017-07-05T14:16:15.679Z,37.90
2017-07-05T14:18:45.799Z,37.90
2017-07-05T14:21:15.812Z,37.90
2017-07-05T14:23:45.511Z,37.80
2017-07-05T14:26:15.536Z,37.80
2017-07-05T14:28:45.967Z,37.80
2017-07-05T14:31:17.370Z,37.70
2017-07-05T14:33:47.551Z,37.70
2017-07-05T14:36:18.646Z,37.60
2017-07-05T14:38:48.475Z,37.60
2017-07-05T14:41:18.360Z,37.60
2017-07-05T14:43:48.768Z,37.60
2017-07-05T14:46:19.195Z,37.50
2017-07-05T14:48:49.010Z,37.40
2017-07-05T14:51:19.607Z,37.30
2017-07-05T14:53:50.896Z,37.20
2017-07-05T14:56:19.867Z,37.30
2017-07-05T14:58:49.055Z,37.20
2017-07-05T15:01:20.007Z,37.10
2017-07-05T15:03:50.367Z,37.10
2017-07-05T15:06:20.968Z,37.00
2017-07-05T15:08:50.044Z,36.90
2017-07-05T15:11:19.509Z,36.90
2017-07-05T15:13:49.304Z,36.70
2017-07-05T15:16:18.891Z,36.70
2017-07-05T15:18:47.391Z,36.70
2017-07-05T15:21:15.933Z,36.70
2017-07-05T15:23:46.487Z,36.60
2017-07-05T15:26:16.544Z,36.60
2017-07-05T15:28:45.897Z,36.50
2017-07-05T15:31:16.120Z,36.40
2017-07-05T15:33:45.176Z,36.40
2017-07-05T15:36:15.590Z,36.40
2017-07-05T15:38:44.571Z,36.40
2017-07-05T15:41:15.115Z,36.40
2017-07-05T15:43:44.995Z,36.40
2017-07-05T15:46:14.196Z,36.40
2017-07-05T15:48:42.392Z,36.30
2017-07-05T15:51:11.584Z,36.20
2017-07-05T15:53:40.863Z,36.20
2017-07-05T15:56:10.995Z,36.20
2017-07-05T15:58:41.671Z,36.20
2017-07-05T16:01:09.785Z,36.20
2017-07-05T16:03:38.684Z,36.20
2017-07-05T16:06:08.635Z,36.20
2017-07-05T16:08:38.972Z,36.00
2017-07-05T16:11:08.256Z,36.10
2017-07-05T16:13:38.452Z,36.10
2017-07-05T16:16:07.259Z,36.10
2017-07-05T16:18:37.620Z,36.10
2017-07-05T16:21:08.212Z,36.10
2017-07-05T16:23:37.799Z,36.00
2017-07-05T16:26:09.008Z,36.00
2017-07-05T16:28:38.892Z,36.00
2017-07-05T16:31:08.403Z,36.00
2017-07-05T16:33:37.847Z,35.90
2017-07-05T16:36:08.045Z,36.00
2017-07-05T16:38:37.753Z,35.90
2017-07-05T16:41:07.679Z,35.80
2017-07-05T16:43:37.744Z,35.80
2017-07-05T16:46:06.355Z,35.80
2017-07-05T16:48:37.099Z,35.90
2017-07-05T16:51:06.412Z,35.90
2017-07-05T16:53:35.608Z,35.90
2017-07-05T16:56:04.627Z,36.00
2017-07-05T16:58:34.675Z,36.00
2017-07-05T17:01:04.581Z,36.00
2017-07-05T17:03:34.718Z,35.90
2017-07-05T17:06:04.795Z,35.90
2017-07-05T17:08:35.032Z,35.90
2017-07-05T17:11:04.515Z,35.90
2017-07-05T17:13:33.920Z,35.90
2017-07-05T17:16:04.220Z,35.90
2017-07-05T17:18:34.981Z,35.90
2017-07-05T17:21:03.843Z,35.90
2017-07-05T17:23:32.936Z,36.00
2017-07-05T17:26:02.322Z,35.90
2017-07-05T17:28:32.016Z,35.90
2017-07-05T17:31:01.932Z,35.90
2017-07-05T17:33:31.047Z,35.90
2017-07-05T17:35:59.253Z,35.90
2017-07-05T17:38:28.395Z,35.90
2017-07-05T17:40:57.924Z,35.90
2017-07-05T17:43:28.583Z,35.90
2017-07-05T17:46:00.539Z,35.80
2017-07-05T17:48:29.628Z,35.80
2017-07-05T17:50:59.552Z,35.80
2017-07-05T17:53:29.816Z,35.70
2017-07-05T17:55:59.292Z,35.70
2017-07-05T17:58:28.380Z,35.70
2017-07-05T18:00:57.339Z,35.60
2017-07-05T18:03:26.228Z,35.60
2017-07-05T18:05:54.991Z,35.60
2017-07-05T18:08:23.835Z,35.60
2017-07-05T18:10:53.414Z,35.60
2017-07-05T18:13:22.412Z,35.60
2017-07-05T18:15:51.403Z,35.60
2017-07-05T18:18:19.911Z,35.50
2017-07-05T18:20:48.088Z,35.50
2017-07-05T18:23:16.315Z,35.50
2017-07-05T18:25:44.947Z,35.50
2017-07-05T18:28:14.296Z,35.50
2017-07-05T18:30:43.144Z,35.50
2017-07-05T18:33:12.444Z,35.50
2017-07-05T18:35:41.984Z,35.50
2017-07-05T18:38:10.300Z,35.50
2017-07-05T18:40:39.016Z,35.50
2017-07-05T18:43:08.365Z,35.40
2017-07-05T18:45:37.216Z,35.40
2017-07-05T18:48:06.512Z,35.40
2017-07-05T18:50:34.704Z,35.40
2017-07-05T18:53:03.665Z,35.40
2017-07-05T18:55:32.504Z,35.40
2017-07-05T18:58:01.219Z,35.40
2017-07-05T19:00:29.476Z,35.40
2017-07-05T19:02:58.204Z,35.40
2017-07-05T19:05:27.067Z,35.40
2017-07-05T19:07:55.679Z,35.40
2017-07-05T19:10:24.288Z,35.40
2017-07-05T19:12:53.529Z,35.30
2017-07-05T19:15:22.284Z,35.30
2017-07-05T19:17:51.580Z,35.40
2017-07-05T19:20:21.219Z,35.40
2017-07-05T19:22:49.939Z,35.40
2017-07-05T19:25:18.569Z,35.40
2017-07-05T19:27:48.204Z,35.30
2017-07-05T19:30:17.201Z,35.30
2017-07-05T19:32:45.812Z,35.20
2017-07-05T19:35:14.540Z,35.20
2017-07-05T19:37:44.333Z,35.20
2017-07-05T19:40:12.443Z,35.20
2017-07-05T19:42:41.119Z,35.20
2017-07-05T19:45:10.664Z,35.10
2017-07-05T19:47:39.407Z,35.10
2017-07-05T19:50:08.812Z,35.10
2017-07-05T19:52:38.503Z,35.10
2017-07-05T19:55:07.011Z,35.10
2017-07-05T19:57:36.547Z,35.00
2017-07-05T20:00:05.285Z,35.00
2017-07-05T20:02:33.434Z,35.00
2017-07-05T20:05:02.143Z,35.00
2017-07-05T20:07:30.975Z,35.00
2017-07-05T20:09:59.583Z,34.90
2017-07-05T20:12:28.244Z,34.90
2017-07-05T20:14:57.239Z,34.90
2017-07-05T20:17:25.943Z,34.80
2017-07-05T20:19:54.935Z,34.80
2017-07-05T20:22:23.831Z,34.70
2017-07-05T20:24:52.380Z,34.80
2017-07-05T20:27:20.556Z,34.70
2017-07-05T20:29:51.063Z,34.70
2017-07-05T20:32:19.827Z,34.70
2017-07-05T20:34:48.722Z,34.70
2017-07-05T20:37:17.535Z,34.70
2017-07-05T20:39:46.144Z,34.70
2017-07-05T20:42:15.487Z,34.70
2017-07-05T20:44:44.236Z,34.60
2017-07-05T20:47:13.690Z,34.60
2017-07-05T20:49:42.427Z,34.60
2017-07-05T20:52:10.711Z,34.60
2017-07-05T20:54:40.127Z,34.50
2017-07-05T20:57:08.853Z,34.50
2017-07-05T20:59:37.599Z,34.50
2017-07-05T21:02:06.171Z,34.50
2017-07-05T21:04:35.581Z,34.50
2017-07-05T21:07:05.303Z,34.40
2017-07-05T21:09:34.260Z,34.40
2017-07-05T21:12:02.426Z,34.40
2017-07-05T21:14:31.251Z,34.40
2017-07-05T21:17:00.547Z,34.40
2017-07-05T21:19:30.089Z,34.30
2017-07-05T21:21:58.451Z,34.30
2017-07-05T21:24:26.607Z,34.30
2017-07-05T21:26:56.016Z,34.20
2017-07-05T21:29:25.497Z,34.30
2017-07-05T21:31:54.108Z,34.20
2017-07-05T21:34:23.353Z,34.20
2017-07-05T21:36:52.196Z,34.20
2017-07-05T21:39:21.495Z,34.10
2017-07-05T21:41:50.956Z,34.00
2017-07-05T21:44:19.236Z,34.00
2017-07-05T21:46:47.888Z,34.00
2017-07-05T21:49:16.594Z,34.00
2017-07-05T21:51:45.261Z,34.00
2017-07-05T21:54:13.375Z,34.00
2017-07-05T21:56:42.139Z,34.00
2017-07-05T21:59:10.849Z,34.00
2017-07-05T22:01:39.415Z,34.00
2017-07-05T22:04:08.166Z,33.90
2017-07-05T22:06:37.547Z,34.00
2017-07-05T22:09:05.664Z,34.00
2017-07-05T22:11:34.291Z,33.90
2017-07-05T22:14:03.059Z,34.00
2017-07-05T22:16:31.810Z,34.00
2017-07-05T22:19:01.151Z,33.90
2017-07-05T22:21:30.004Z,33.90
2017-07-05T22:23:59.400Z,33.90
2017-07-05T22:26:28.760Z,33.80
2017-07-05T22:28:57.511Z,33.80
2017-07-05T22:31:25.703Z,33.80
2017-07-05T22:33:54.451Z,33.70
2017-07-05T22:36:23.972Z,33.70
2017-07-05T22:38:53.268Z,33.60
2017-07-05T22:41:22.829Z,33.50
2017-07-05T22:43:51.471Z,33.50
2017-07-05T22:46:20.898Z,33.50
2017-07-05T22:48:49.613Z,33.50
2017-07-05T22:51:19.145Z,33.50
2017-07-05T22:53:48.088Z,33.50
2017-07-05T22:56:16.255Z,33.50
2017-07-05T22:58:44.493Z,33.50
2017-07-05T23:01:12.651Z,33.50
2017-07-05T23:03:41.283Z,33.40
2017-07-05T23:06:10.280Z,33.50
2017-07-05T23:08:38.459Z,33.50
2017-07-05T23:11:06.725Z,33.40
2017-07-05T23:13:36.303Z,33.40
2017-07-05T23:16:04.928Z,33.40
2017-07-05T23:18:33.047Z,33.30
2017-07-05T23:21:01.921Z,33.30
2017-07-05T23:23:30.563Z,33.30
2017-07-05T23:25:59.907Z,33.20
2017-07-05T23:28:28.760Z,33.20
2017-07-05T23:30:58.096Z,33.10
2017-07-05T23:33:26.643Z,33.20
2017-07-05T23:35:56.223Z,33.10
2017-07-05T23:38:24.835Z,33.10
2017-07-05T23:40:54.185Z,33.10
2017-07-05T23:43:22.928Z,33.10
2017-07-05T23:45:52.271Z,33.10
2017-07-05T23:48:20.915Z,33.10
2017-07-05T23:50:49.201Z,33.10
2017-07-05T23:53:18.679Z,33.10
2017-07-05T23:55:47.253Z,33.10
2017-07-05T23:58:15.591Z,33.10
